Aviation Digital Data Service (ADDS)

Output produced by METARs form (1312 UTC 21 May 2018)
found at http://aviationweather.gov/adds/metars/
 
KIAH 211253Z 05006KT 10SM FEW012 SCT150 BKN250 22/21 A3000 RMK AO2 SLP158 T02170211